Flight Track Log - Related Links

Times and Time Zones

All times are in EDT time to prevent confusion due to time zone crossing. See the TOK700 flight status page for this flight to view local times or setup timezone preferences in your user account.

Time Position Orientation Groundspeed Altitude Reporting Facility
EDT Latitude Longitude Course Direction KTS MPH feet Rate Location/Type
Sat 03:26:32 AM -5.6818 150.2692 206° Southwest  Level FlightAware Approximate
Sat 03:27:32 AM -5.7314 150.2418 206° Southwest  Level FlightAware Approximate
Sat 03:28:32 AM -5.7810 150.2144 206° Southwest  Level FlightAware Approximate
Sat 03:29:32 AM -5.8306 150.1870 206° Southwest  Level FlightAware Approximate
Sat 03:30:32 AM -5.8802 150.1596 206° Southwest  Level FlightAware Approximate
Sat 03:31:32 AM -5.9297 150.1322 206° Southwest  Level FlightAware Approximate
Sat 03:32:32 AM -5.9793 150.1047 206° Southwest  Level FlightAware Approximate
Sat 03:33:32 AM -6.0289 150.0773 206° Southwest  Level FlightAware Approximate
Sat 03:34:32 AM -6.0785 150.0499 206° Southwest  Level FlightAware Approximate
Sat 03:35:32 AM -6.1280 150.0224 206° Southwest  Level FlightAware Approximate
Sat 03:36:32 AM -6.1776 149.9950 206° Southwest  Level FlightAware Approximate
Sat 03:37:32 AM -6.2272 149.9675 206° Southwest  Level FlightAware Approximate
Sat 03:38:32 AM -6.2767 149.9401 206° Southwest  Level FlightAware Approximate
Sat 03:39:32 AM -6.3263 149.9126 206° Southwest  Level FlightAware Approximate
Sat 03:40:32 AM -6.3759 149.8852 206° Southwest  Level FlightAware Approximate
Sat 03:41:32 AM -6.4254 149.8577 206° Southwest  Level FlightAware Approximate
Sat 03:42:32 AM -6.4750 149.8302 206° Southwest  Level FlightAware Approximate
Sat 03:43:32 AM -6.5245 149.8028 206° Southwest  Level FlightAware Approximate
Sat 03:44:32 AM -6.5741 149.7753 206° Southwest  Level FlightAware Approximate
Sat 03:45:32 AM -6.6237 149.7478 206° Southwest  Level FlightAware Approximate
Sat 03:46:32 AM -6.6732 149.7203 206° Southwest  Level FlightAware Approximate
Sat 03:47:32 AM -6.7228 149.6928 206° Southwest  Level FlightAware Approximate
Sat 03:48:32 AM -6.7723 149.6653 206° Southwest  Level FlightAware Approximate
Sat 03:49:32 AM -6.8219 149.6378 206° Southwest  Level FlightAware Approximate
Sat 03:50:32 AM -6.8714 149.6102 206° Southwest  Level FlightAware Approximate
Sat 03:51:32 AM -6.9210 149.5827 206° Southwest  Level FlightAware Approximate
Sat 03:52:32 AM -6.9705 149.5552 206° Southwest  Level FlightAware Approximate
Sat 03:53:32 AM -7.0201 149.5277 206° Southwest  Level FlightAware Approximate
Sat 03:54:32 AM -7.0685 149.5007 206° Southwest  Level FlightAware Approximate
Sat 03:55:32 AM -7.1169 149.4738 206° Southwest  Level FlightAware Approximate
Sat 03:56:32 AM -7.1654 149.4469 206° Southwest  Level FlightAware Approximate
Sat 03:57:32 AM -7.2138 149.4199 206° Southwest  Level FlightAware Approximate
Sat 03:58:32 AM -7.2622 149.3929 206° Southwest  Level FlightAware Approximate
Sat 03:59:32 AM -7.3107 149.3660 206° Southwest  Level FlightAware Approximate
Sat 04:00:32 AM -7.3591 149.3390 206° Southwest  Level FlightAware Approximate
Sat 04:01:32 AM -7.4075 149.3121 206° Southwest  Level FlightAware Approximate
Sat 04:02:32 AM -7.4560 149.2851 206° Southwest  Level FlightAware Approximate
Sat 04:03:32 AM -7.5044 149.2581 206° Southwest  Level FlightAware Approximate
Sat 04:04:32 AM -7.5528 149.2311 206° Southwest  Level FlightAware Approximate
Sat 04:05:32 AM -7.6012 149.2041 206° Southwest  Level FlightAware Approximate
Sat 04:06:32 AM -7.6497 149.1771 206° Southwest  Level FlightAware Approximate
Sat 04:07:32 AM -7.6981 149.1501 205° Southwest  Level FlightAware Approximate
Sat 04:08:32 AM -7.7465 149.1231 205° Southwest  Level FlightAware Approximate
Sat 04:09:32 AM -7.7949 149.0961 205° Southwest  Level FlightAware Approximate
Sat 04:10:32 AM -7.8433 149.0690 205° Southwest  Level FlightAware Approximate
Sat 04:11:32 AM -7.8917 149.0420 205° Southwest  Level FlightAware Approximate
Sat 04:12:32 AM -7.9401 149.0150 205° Southwest  Level FlightAware Approximate
Sat 04:13:32 AM -7.9886 148.9879 205° Southwest  Level FlightAware Approximate
Sat 04:14:32 AM -8.0370 148.9609 205° Southwest  Level FlightAware Approximate
Sat 04:15:32 AM -8.0854 148.9339 205° Southwest  Level FlightAware Approximate
Sat 04:16:32 AM -8.1338 148.9068 205° Southwest  Level FlightAware Approximate
Sat 04:17:32 AM -8.1822 148.8797 205° Southwest  Level FlightAware Approximate
Sat 04:18:32 AM -8.2306 148.8526 205° Southwest  Level FlightAware Approximate
Sat 04:19:32 AM -8.2790 148.8256 205° Southwest  Level FlightAware Approximate
Sat 04:20:32 AM -8.3274 148.7985 205° Southwest  Level FlightAware Approximate
Sat 04:21:32 AM -8.3758 148.7714 205° Southwest  Level FlightAware Approximate
Sat 04:22:32 AM -8.4242 148.7443 205° Southwest  Level FlightAware Approximate
Sat 04:23:32 AM -8.4726 148.7171 205° Southwest  Level FlightAware Approximate
Sat 04:24:32 AM -8.5210 148.6900 205° Southwest  Level FlightAware Approximate
Sat 04:25:32 AM -8.5693 148.6629 205° Southwest  Level FlightAware Approximate
Sat 04:26:32 AM -8.6177 148.6358 205° Southwest  Level FlightAware Approximate
Sat 04:27:32 AM -8.6661 148.6086 205° Southwest  Level FlightAware Approximate
Sat 04:28:32 AM -8.7145 148.5815 205° Southwest  Level FlightAware Approximate
Sat 04:29:32 AM -8.7629 148.5544 205° Southwest  Level FlightAware Approximate
Sat 04:30:32 AM -8.8151 148.5359 205° Southwest  Level FlightAware Approximate
Sat 04:31:32 AM -8.8673 148.5174 205° Southwest  Level FlightAware Approximate
Sat 04:32:32 AM -8.9195 148.4989 205° Southwest  Level FlightAware Approximate
Sat 04:33:32 AM -8.9718 148.4803 205° Southwest  Level FlightAware Approximate
Sat 04:34:32 AM -9.0240 148.4618 205° Southwest  Level FlightAware Approximate
Sat 04:35:32 AM -9.0762 148.4433 205° Southwest  Level FlightAware Approximate
Sat 04:36:32 AM -9.1284 148.4248 205° Southwest  Level FlightAware Approximate
Sat 04:37:32 AM -9.1806 148.4062 205° Southwest  Level FlightAware Approximate
Sat 04:38:32 AM -9.2328 148.3877 205° Southwest  Level FlightAware Approximate
Sat 04:39:32 AM -9.2850 148.3692 205° Southwest  Level FlightAware Approximate
Sat 04:40:32 AM -9.3372 148.3506 206° Southwest  Level FlightAware Approximate
Sat 04:41:32 AM -9.3894 148.3321 206° Southwest  Level FlightAware Approximate
Sat 04:42:32 AM -9.4417 148.3136 206° Southwest  Level FlightAware Approximate
Sat 04:43:32 AM -9.4939 148.2950 206° Southwest  Level FlightAware Approximate
Sat 04:44:32 AM -9.5461 148.2764 206° Southwest  Level FlightAware Approximate
Sat 04:45:32 AM -9.5983 148.2578 206° Southwest  Level FlightAware Approximate
Sat 04:46:32 AM -9.6505 148.2393 206° Southwest  Level FlightAware Approximate
Sat 04:47:32 AM -9.7027 148.2207 206° Southwest  Level FlightAware Approximate
Sat 04:48:32 AM -9.7549 148.2021 206° Southwest  Level FlightAware Approximate
Sat 04:49:32 AM -9.8071 148.1835 206° Southwest  Level FlightAware Approximate
Sat 04:50:32 AM -9.8593 148.1649 206° Southwest  Level FlightAware Approximate
Sat 04:51:32 AM -9.9115 148.1463 207° Southwest  Level FlightAware Approximate
Sat 04:52:32 AM -9.9637 148.1277 207° Southwest  Level FlightAware Approximate
Sat 04:53:32 AM -10.0159 148.1091 207° Southwest  Level FlightAware Approximate
Sat 04:54:32 AM -10.0681 148.0904 207° Southwest  Level FlightAware Approximate
Sat 04:55:32 AM -10.1203 148.0718 207° Southwest  Level FlightAware Approximate
Sat 04:56:32 AM -10.1725 148.0531 207° Southwest  Level FlightAware Approximate
Sat 04:57:32 AM -10.2247 148.0345 207° Southwest  Level FlightAware Approximate
Sat 04:58:27 AM -12.0000 146.7167 191° South 18,000  Level Aus ATC (Calculated)
Sat 04:59:32 AM -12.0589 146.7051 191° South  Level FlightAware Approximate
Sat 05:00:02 AM -12.0746 146.7020 191° South 18,000  Level Aus ATC (Calculated)
Sat 05:00:53 AM -12.1469 146.6878 191° South 18,000 227 Level Aus ATC (Calculated)
Sat 05:01:27 AM -12.1469 146.6878 191° South 18,000 239 Level Aus ATC (Calculated)
Sat 05:02:32 AM -12.2055 146.6763 191° South  Level FlightAware Approximate
Sat 05:03:32 AM -12.2596 146.6656 191° South  Level FlightAware Approximate
Sat 05:04:32 AM -12.3137 146.6550 191° South  Level FlightAware Approximate
Sat 05:04:59 AM -12.4271 146.6326 191° South 18,000  Level Aus ATC (Calculated)
Sat 05:06:32 AM -12.5110 146.6161 191° South  Level FlightAware Approximate
Sat 05:07:32 AM -12.5650 146.6054 191° South  Level FlightAware Approximate
Sat 05:08:32 AM -12.6191 146.5948 191° South  Level FlightAware Approximate
Sat 05:09:32 AM -12.6732 146.5841 191° South  Level FlightAware Approximate
Sat 05:10:32 AM -12.7273 146.5734 191° South  Level FlightAware Approximate
Sat 05:11:32 AM -12.7814 146.5627 191° South  Level FlightAware Approximate
Sat 05:12:32 AM -12.8355 146.5520 191° South  Level FlightAware Approximate
Sat 05:13:32 AM -12.8896 146.5413 190° South  Level FlightAware Approximate
Sat 05:14:22 AM -13.1013 146.4993 180° South 18,000  Level Aus ATC (Calculated)
Sat 05:15:32 AM -13.1644 146.4868 13° North  Level FlightAware Approximate
Sat 05:16:50 AM -13.2622 146.4674 12° North 18,000  Level Aus ATC (Calculated)
Sat 05:17:37 AM -13.1103 146.4994 190° South 248 285 22,000 2,474 Climbing Aus ATC (RADAR)
Sat 05:18:27 AM -13.2144 146.4814 191° South 246 283 22,000  Level Aus ATC (RADAR)
Sat 05:19:27 AM -13.2834 146.4678 192° South 248 285 22,000  Level Aus ATC (RADAR)
Sat 05:20:03 AM -13.3232 146.4588 193° South 248 285 22,000  Level Aus ATC (RADAR)
Sat 05:20:33 AM -13.3572 146.4509 192° South 246 283 22,000  Level Aus ATC (RADAR)
Sat 05:21:12 AM -13.4028 146.4411 190° South 246 283 22,000  Level Aus ATC (RADAR)
Sat 05:21:42 AM -13.4374 146.4349 191° South 248 285 22,000  Level Aus ATC (RADAR)
Sat 05:22:17 AM -13.4771 146.4268 191° South 247 284 22,000  Level Aus ATC (RADAR)
Sat 05:23:07 AM -13.5348 146.4157 190° South 248 285 22,000  Level Aus ATC (RADAR)
Sat 05:23:52 AM -13.5866 146.4067 193° South 247 284 22,000  Level Aus ATC (RADAR)
Sat 05:24:26 AM -13.6261 146.3975 191° South 246 283 22,000  Level Aus ATC (RADAR)
Sat 05:25:08 AM -13.6718 146.3886 194° South 247 284 22,000  Level Aus ATC (RADAR)
Sat 05:25:42 AM -13.7114 146.3784 191° South 248 285 22,000  Level Aus ATC (RADAR)
Sat 05:26:18 AM -13.7514 146.3706 191° South 246 283 22,000  Level Aus ATC (RADAR)
Sat 05:26:49 AM -13.7857 146.3636 189° South 248 285 22,000  Level Aus ATC (RADAR)
Sat 05:27:22 AM -13.8261 146.3568 191° South 248 285 22,000  Level Aus ATC (RADAR)
Sat 05:28:07 AM -13.8773 146.3462 190° South 247 284 22,000  Level Aus ATC (RADAR)
Sat 05:28:38 AM -13.9118 146.3398 193° South 248 285 22,000  Level Aus ATC (RADAR)
Sat 05:29:14 AM -13.9515 146.3304 194° South 248 285 22,000  Level Aus ATC (RADAR)
Sat 05:29:48 AM -13.9909 146.3203 183° South 247 284 22,000  Level Aus ATC (RADAR)
Sat 05:30:19 AM -14.0272 146.3180 202° Southwest 259 298 22,000  Level Aus ATC (RADAR)
Sat 05:31:26 AM -14.1026 146.2868 195° South 247 284 22,000  Level Aus ATC (RADAR)
Sat 05:31:56 AM -14.1359 146.2777 193° South 244 281 22,000  Level Aus ATC (RADAR)
Sat 05:32:31 AM -14.1752 146.2680 196° South 244 281 22,000  Level Aus ATC (RADAR)
Sat 05:33:31 AM -14.2422 146.2480 195° South 248 285 22,000  Level Aus ATC (RADAR)
Sat 05:34:26 AM -14.3034 146.2307 195° South 246 283 22,000  Level Aus ATC (RADAR)
Sat 05:35:10 AM -14.3537 146.2169 195° South 244 281 22,000  Level Aus ATC (RADAR)
Sat 05:36:16 AM -14.4267 146.1969 195° South 248 285 22,000  Level Aus ATC (RADAR)
Sat 05:37:21 AM -14.4997 146.1767 197° South 247 284 22,000  Level Aus ATC (RADAR)
Sat 05:37:56 AM -14.5384 146.1641 196° South 246 283 22,000  Level Aus ATC (RADAR)
Sat 05:38:35 AM -14.5839 146.1510 194° South 251 289 22,000  Level Aus ATC (RADAR)
Sat 05:39:37 AM -14.6529 146.1336 195° South 253 291 22,000  Level Aus ATC (RADAR)
Sat 05:40:16 AM -14.6989 146.1212 197° South 252 290 22,000  Level Aus ATC (RADAR)
Sat 05:41:17 AM -14.7675 146.1000 194° South 254 292 22,000  Level Aus ATC (RADAR)
Sat 05:41:55 AM -14.8137 146.0885 197° South 253 291 22,000  Level Aus ATC (RADAR)
Sat 05:42:50 AM -14.8764 146.0691 195° South 254 292 22,000  Level Aus ATC (RADAR)
Sat 05:43:47 AM -14.9394 146.0516 195° South 252 290 22,000  Level Aus ATC (RADAR)
Sat 05:44:42 AM -15.0023 146.0338 195° South 251 289 22,000  Level Aus ATC (RADAR)
Sat 05:45:26 AM -15.0540 146.0198 195° South 253 291 22,000  Level Aus ATC (RADAR)
Sat 05:46:25 AM -15.1226 146.0005 196° South 252 290 22,000  Level Aus ATC (RADAR)
Sat 05:47:04 AM -15.1683 145.9874 194° South 254 292 22,000  Level Aus ATC (RADAR)
Sat 05:47:34 AM -15.2024 145.9785 195° South 251 289 22,000  Level Aus ATC (RADAR)
Sat 05:48:09 AM -15.2426 145.9674 195° South 251 289 22,000  Level Aus ATC (RADAR)
Sat 05:48:49 AM -15.2885 145.9546 196° South 253 291 22,000  Level Aus ATC (RADAR)
Sat 05:49:24 AM -15.3288 145.9429 194° South 253 291 22,000  Level Aus ATC (RADAR)
Sat 05:49:59 AM -15.3692 145.9322 195° South 255 293 22,000 -160 Level Aus ATC (RADAR)
Sat 05:50:39 AM -15.4157 145.9195 196° South 259 298 21,800 -320 Descending Aus ATC (RADAR)
Sat 05:51:14 AM -15.4569 145.9072 195° South 263 303 21,600 -343 Descending Aus ATC (RADAR)
Sat 05:51:49 AM -15.4992 145.8957 196° South 267 307 21,400 -400 Descending Aus ATC (RADAR)
Sat 05:52:29 AM -15.5476 145.8816 195° South 270 311 21,100 -429 Descending Aus ATC (RADAR)
Sat 05:52:59 AM -15.5843 145.8710 195° South 273 314 20,900 -404 Descending Aus ATC (RADAR)
Sat 05:53:58 AM -15.6579 145.8506 195° South 274 315 20,500 -403 Descending Aus ATC (RADAR)
Sat 05:54:58 AM -15.7319 145.8304 196° South 275 316 20,100 -457 Descending Aus ATC (RADAR)
Sat 05:55:43 AM -15.7874 145.8139 195° South 274 315 19,700 -540 Descending Aus ATC (RADAR)
Sat 05:56:38 AM -15.8562 145.7942 195° South 278 320 19,200 -660 Descending Aus ATC (RADAR)
Sat 05:57:23 AM -15.9133 145.7781 194° South 283 326 18,600 -880 Descending Aus ATC (RADAR)
Sat 05:57:53 AM -15.9530 145.7675 196° South 292 336 18,100 -1,183 Descending Aus ATC (RADAR)
Sat 05:58:34 AM -16.0066 145.7520 196° South 302 348 17,200 -1,472 Descending Aus ATC (RADAR)
Sat 05:59:39 AM -16.0959 145.7256 195° South 302 348 15,500 -1,576 Descending Aus ATC (RADAR)
Sat 06:00:13 AM -16.1426 145.7127 194° South 296 341 14,600 -1,594 Descending Aus ATC (RADAR)
Sat 06:00:43 AM -16.1827 145.7022 195° South 295 339 13,800 -1,545 Descending Aus ATC (RADAR)
Sat 06:01:19 AM -16.2299 145.6894 196° South 299 344 12,900 -1,457 Descending Aus ATC (RADAR)
Sat 06:01:53 AM -16.2763 145.6760 196° South 293 337 12,100 -1,562 Descending Aus ATC (RADAR)
Sat 06:02:32 AM -16.3277 145.6605 196° South 288 331 11,000 -1,565 Descending Aus ATC (RADAR)
Sat 06:03:02 AM -16.3659 145.6492 195° South 285 328 10,300 -1,500 Descending Aus ATC (RADAR)
Sat 06:03:52 AM -16.4293 145.6315 195° South 278 320 9,000 -1,473 Descending Aus ATC (RADAR)
Sat 06:04:52 AM -16.4999 145.6114 196° South 259 298 7,600 -1,389 Descending Aus ATC (RADAR)
Sat 06:05:27 AM -16.5396 145.5997 161° South 256 295 6,800 -1,200 Descending Aus ATC (RADAR)
Sat 06:06:07 AM -16.5796 145.6140 156° South 222 255 6,100 -1,040 Descending Aus ATC (RADAR)
Sat 06:06:42 AM -16.6085 145.6275 157° South 197 227 5,500 -1,114 Descending Aus ATC (RADAR)
Sat 06:07:17 AM -16.6373 145.6400 156° South 192 221 4,800 -1,029 Descending Aus ATC (RADAR)
Sat 06:07:52 AM -16.6651 145.6526 157° South 186 214 4,300 -943 Descending Aus ATC (RADAR)
Sat 06:08:27 AM -16.6922 145.6649 157° South 181 208 3,700 -1,040 Descending Aus ATC (RADAR)
Sat 06:09:07 AM -16.7209 145.6779 156° South 167 192 3,000 -880 Descending Aus ATC (RADAR)
Sat 06:09:42 AM -16.7453 145.6890 157° South 165 190 2,600 -831 Descending Aus ATC (RADAR)
Sat 06:10:12 AM -16.7649 145.6979 157° South 151 174 2,100 -761 Descending Aus ATC (RADAR)
Sat 06:10:53 AM -16.7853 145.7071 156° South 119 137 1,700 -545 Descending Aus ATC (RADAR)
Sat 06:12:02 AM -16.8163 145.7213 157° South 102 117 1,100 -556 Descending Aus ATC (RADAR)
Sat 06:12:41 AM -16.8338 145.7291 156° South 103 119 700 -568 Descending Aus ATC (RADAR)
Sat 06:13:16 AM -16.8486 145.7358 156° South 100 115 400 -514 Descending Aus ATC (RADAR)

Login

Don't have an account? Register now (free) for customized features, flight alerts, and more!